sensor_id;sensor_type;location;lat;lon;timestamp;temperature;humidity
41178;DHT22;26912;54.292;18.574;2022-10-14T00:01:16;24.70;43.10
41178;DHT22;26912;54.292;18.574;2022-10-14T00:03:53;24.70;43.10
41178;DHT22;26912;54.292;18.574;2022-10-14T00:06:31;24.60;43.10
41178;DHT22;26912;54.292;18.574;2022-10-14T00:09:04;24.50;43.20
41178;DHT22;26912;54.292;18.574;2022-10-14T00:11:34;24.40;43.20
41178;DHT22;26912;54.292;18.574;2022-10-14T00:14:10;24.40;43.10
41178;DHT22;26912;54.292;18.574;2022-10-14T00:16:40;24.40;43.10
41178;DHT22;26912;54.292;18.574;2022-10-14T00:19:09;24.40;43.10
41178;DHT22;26912;54.292;18.574;2022-10-14T00:21:38;24.30;43.20
41178;DHT22;26912;54.292;18.574;2022-10-14T00:24:09;24.10;43.80
41178;DHT22;26912;54.292;18.574;2022-10-14T00:26:38;24.10;43.90
41178;DHT22;26912;54.292;18.574;2022-10-14T00:29:16;24.10;43.90
41178;DHT22;26912;54.292;18.574;2022-10-14T00:31:45;24.00;43.70
41178;DHT22;26912;54.292;18.574;2022-10-14T00:34:11;24.00;43.80
41178;DHT22;26912;54.292;18.574;2022-10-14T00:36:41;23.90;43.90
41178;DHT22;26912;54.292;18.574;2022-10-14T00:39:09;23.90;43.90
41178;DHT22;26912;54.292;18.574;2022-10-14T00:41:38;23.90;44.00
41178;DHT22;26912;54.292;18.574;2022-10-14T00:46:45;24.00;44.00
41178;DHT22;26912;54.292;18.574;2022-10-14T00:52:18;24.00;44.00
41178;DHT22;26912;54.292;18.574;2022-10-14T00:55:01;23.90;44.00
41178;DHT22;26912;54.292;18.574;2022-10-14T00:57:29;24.00;44.00
41178;DHT22;26912;54.292;18.574;2022-10-14T01:00:03;24.10;44.00
41178;DHT22;26912;54.292;18.574;2022-10-14T01:02:30;23.90;43.90
41178;DHT22;26912;54.292;18.574;2022-10-14T01:04:57;23.90;44.00
41178;DHT22;26912;54.292;18.574;2022-10-14T01:07:51;23.90;44.20
41178;DHT22;26912;54.292;18.574;2022-10-14T01:13:07;23.90;44.30
41178;DHT22;26912;54.292;18.574;2022-10-14T01:21:15;24.10;44.20
41178;DHT22;26912;54.292;18.574;2022-10-14T01:24:08;24.10;43.90
41178;DHT22;26912;54.292;18.574;2022-10-14T01:32:27;23.80;43.90
41178;DHT22;26912;54.292;18.574;2022-10-14T01:37:31;23.50;44.10
41178;DHT22;26912;54.292;18.574;2022-10-14T01:40:05;23.30;44.50
41178;DHT22;26912;54.292;18.574;2022-10-14T01:42:34;23.30;44.70
41178;DHT22;26912;54.292;18.574;2022-10-14T01:45:16;23.40;44.80
41178;DHT22;26912;54.292;18.574;2022-10-14T01:47:48;23.50;45.40
41178;DHT22;26912;54.292;18.574;2022-10-14T01:50:17;23.50;44.50
41178;DHT22;26912;54.292;18.574;2022-10-14T01:52:51;23.60;44.50
41178;DHT22;26912;54.292;18.574;2022-10-14T01:55:22;23.70;44.40
41178;DHT22;26912;54.292;18.574;2022-10-14T01:57:51;23.70;44.30
41178;DHT22;26912;54.292;18.574;2022-10-14T02:00:19;23.70;44.20
41178;DHT22;26912;54.292;18.574;2022-10-14T02:02:46;23.60;44.30
41178;DHT22;26912;54.292;18.574;2022-10-14T02:05:25;23.50;44.50
41178;DHT22;26912;54.292;18.574;2022-10-14T02:08:01;23.50;44.40
41178;DHT22;26912;54.292;18.574;2022-10-14T02:18:31;23.40;44.40
41178;DHT22;26912;54.292;18.574;2022-10-14T02:21:22;23.40;44.60
41178;DHT22;26912;54.292;18.574;2022-10-14T02:24:06;23.30;44.80
41178;DHT22;26912;54.292;18.574;2022-10-14T02:26:35;23.40;44.60
41178;DHT22;26912;54.292;18.574;2022-10-14T02:29:04;23.60;44.60
41178;DHT22;26912;54.292;18.574;2022-10-14T02:31:34;23.60;44.60
41178;DHT22;26912;54.292;18.574;2022-10-14T02:34:05;23.50;44.90
41178;DHT22;26912;54.292;18.574;2022-10-14T02:36:33;23.60;44.90
41178;DHT22;26912;54.292;18.574;2022-10-14T02:39:05;23.70;44.90
41178;DHT22;26912;54.292;18.574;2022-10-14T02:41:34;23.70;45.00
41178;DHT22;26912;54.292;18.574;2022-10-14T02:44:04;23.60;45.20
41178;DHT22;26912;54.292;18.574;2022-10-14T02:46:31;23.50;45.40
41178;DHT22;26912;54.292;18.574;2022-10-14T02:48:58;23.50;45.50
41178;DHT22;26912;54.292;18.574;2022-10-14T02:51:25;23.50;45.50
41178;DHT22;26912;54.292;18.574;2022-10-14T02:53:52;23.50;45.60
41178;DHT22;26912;54.292;18.574;2022-10-14T02:56:18;23.50;45.70
41178;DHT22;26912;54.292;18.574;2022-10-14T02:58:45;23.40;45.70
41178;DHT22;26912;54.292;18.574;2022-10-14T03:01:11;23.50;45.70
41178;DHT22;26912;54.292;18.574;2022-10-14T03:03:38;23.60;45.30
41178;DHT22;26912;54.292;18.574;2022-10-14T03:06:05;23.60;45.30
41178;DHT22;26912;54.292;18.574;2022-10-14T03:08:32;23.60;45.40
41178;DHT22;26912;54.292;18.574;2022-10-14T03:11:01;23.50;45.70
41178;DHT22;26912;54.292;18.574;2022-10-14T03:13:27;23.60;45.70
41178;DHT22;26912;54.292;18.574;2022-10-14T03:15:54;23.50;45.50
41178;DHT22;26912;54.292;18.574;2022-10-14T03:18:21;23.50;45.60
41178;DHT22;26912;54.292;18.574;2022-10-14T03:20:48;23.50;45.50
41178;DHT22;26912;54.292;18.574;2022-10-14T03:23:20;23.50;45.60
41178;DHT22;26912;54.292;18.574;2022-10-14T03:25:50;23.60;45.70
41178;DHT22;26912;54.292;18.574;2022-10-14T03:28:24;23.60;45.40
41178;DHT22;26912;54.292;18.574;2022-10-14T03:30:59;23.60;45.40
41178;DHT22;26912;54.292;18.574;2022-10-14T03:33:41;23.60;45.50
41178;DHT22;26912;54.292;18.574;2022-10-14T03:36:11;23.80;45.30
41178;DHT22;26912;54.292;18.574;2022-10-14T03:38:44;23.90;44.90
41178;DHT22;26912;54.292;18.574;2022-10-14T03:41:20;23.90;44.70
41178;DHT22;26912;54.292;18.574;2022-10-14T03:43:47;23.80;44.50
41178;DHT22;26912;54.292;18.574;2022-10-14T03:46:13;23.70;44.60
41178;DHT22;26912;54.292;18.574;2022-10-14T03:48:41;23.60;44.60
41178;DHT22;26912;54.292;18.574;2022-10-14T03:51:07;23.50;44.60
41178;DHT22;26912;54.292;18.574;2022-10-14T03:53:35;23.40;44.70
41178;DHT22;26912;54.292;18.574;2022-10-14T03:56:02;23.40;44.60
41178;DHT22;26912;54.292;18.574;2022-10-14T03:58:29;23.40;44.60
41178;DHT22;26912;54.292;18.574;2022-10-14T04:01:01;23.30;44.40
41178;DHT22;26912;54.292;18.574;2022-10-14T04:03:38;23.30;44.40
41178;DHT22;26912;54.292;18.574;2022-10-14T04:06:06;23.30;44.30
41178;DHT22;26912;54.292;18.574;2022-10-14T04:08:32;23.10;44.30
41178;DHT22;26912;54.292;18.574;2022-10-14T04:11:12;23.00;44.50
41178;DHT22;26912;54.292;18.574;2022-10-14T04:13:40;23.00;44.60
41178;DHT22;26912;54.292;18.574;2022-10-14T04:16:08;23.00;44.60
41178;DHT22;26912;54.292;18.574;2022-10-14T04:18:56;23.10;44.50
41178;DHT22;26912;54.292;18.574;2022-10-14T04:21:24;23.10;44.50
41178;DHT22;26912;54.292;18.574;2022-10-14T04:23:52;23.00;44.50
41178;DHT22;26912;54.292;18.574;2022-10-14T04:26:28;22.80;44.80
41178;DHT22;26912;54.292;18.574;2022-10-14T04:28:55;22.80;44.90
41178;DHT22;26912;54.292;18.574;2022-10-14T04:31:32;22.70;45.00
41178;DHT22;26912;54.292;18.574;2022-10-14T04:34:01;22.70;45.20
41178;DHT22;26912;54.292;18.574;2022-10-14T04:36:33;22.60;45.10
41178;DHT22;26912;54.292;18.574;2022-10-14T04:39:01;22.60;45.00
41178;DHT22;26912;54.292;18.574;2022-10-14T04:41:28;22.70;44.90
41178;DHT22;26912;54.292;18.574;2022-10-14T04:43:57;22.70;44.60
41178;DHT22;26912;54.292;18.574;2022-10-14T04:46:43;22.70;44.70
41178;DHT22;26912;54.292;18.574;2022-10-14T04:49:11;22.60;45.00
41178;DHT22;26912;54.292;18.574;2022-10-14T04:51:47;22.60;44.80
41178;DHT22;26912;54.292;18.574;2022-10-14T04:54:23;22.70;44.90
41178;DHT22;26912;54.292;18.574;2022-10-14T04:56:53;22.70;44.70
41178;DHT22;26912;54.292;18.574;2022-10-14T04:59:19;22.70;44.60
41178;DHT22;26912;54.292;18.574;2022-10-14T05:02:04;22.60;44.80
41178;DHT22;26912;54.292;18.574;2022-10-14T05:04:38;22.50;44.70
41178;DHT22;26912;54.292;18.574;2022-10-14T05:07:05;22.50;45.10
41178;DHT22;26912;54.292;18.574;2022-10-14T05:09:32;22.50;45.30
41178;DHT22;26912;54.292;18.574;2022-10-14T05:11:58;22.40;45.30
41178;DHT22;26912;54.292;18.574;2022-10-14T05:14:36;22.40;45.60
41178;DHT22;26912;54.292;18.574;2022-10-14T05:17:18;22.30;45.70
41178;DHT22;26912;54.292;18.574;2022-10-14T05:19:45;22.30;46.30
41178;DHT22;26912;54.292;18.574;2022-10-14T05:22:12;22.30;46.80
41178;DHT22;26912;54.292;18.574;2022-10-14T05:24:42;22.50;45.90
41178;DHT22;26912;54.292;18.574;2022-10-14T05:27:10;22.60;45.70
41178;DHT22;26912;54.292;18.574;2022-10-14T05:29:36;22.60;46.00
41178;DHT22;26912;54.292;18.574;2022-10-14T05:32:03;22.60;45.90
41178;DHT22;26912;54.292;18.574;2022-10-14T05:34:37;22.70;46.20
41178;DHT22;26912;54.292;18.574;2022-10-14T05:37:07;22.70;46.10
41178;DHT22;26912;54.292;18.574;2022-10-14T05:39:40;22.70;45.90
41178;DHT22;26912;54.292;18.574;2022-10-14T05:42:07;22.60;46.30
41178;DHT22;26912;54.292;18.574;2022-10-14T05:44:34;22.60;46.50
41178;DHT22;26912;54.292;18.574;2022-10-14T05:47:02;22.60;46.30
41178;DHT22;26912;54.292;18.574;2022-10-14T05:49:28;22.40;46.60
41178;DHT22;26912;54.292;18.574;2022-10-14T05:51:57;22.30;47.00
41178;DHT22;26912;54.292;18.574;2022-10-14T05:54:23;22.40;47.10
41178;DHT22;26912;54.292;18.574;2022-10-14T05:56:52;22.50;47.00
41178;DHT22;26912;54.292;18.574;2022-10-14T05:59:19;22.60;46.70
41178;DHT22;26912;54.292;18.574;2022-10-14T06:01:46;22.70;46.70
41178;DHT22;26912;54.292;18.574;2022-10-14T06:04:17;22.80;46.60
41178;DHT22;26912;54.292;18.574;2022-10-14T06:06:44;22.60;46.60
41178;DHT22;26912;54.292;18.574;2022-10-14T06:09:11;22.50;46.60
41178;DHT22;26912;54.292;18.574;2022-10-14T06:11:38;22.50;46.90
41178;DHT22;26912;54.292;18.574;2022-10-14T06:14:05;22.50;46.90
41178;DHT22;26912;54.292;18.574;2022-10-14T06:16:32;22.50;47.00
41178;DHT22;26912;54.292;18.574;2022-10-14T06:19:02;22.50;47.00
41178;DHT22;26912;54.292;18.574;2022-10-14T06:21:29;22.70;46.60
41178;DHT22;26912;54.292;18.574;2022-10-14T06:23:55;22.70;46.50
41178;DHT22;26912;54.292;18.574;2022-10-14T06:26:22;22.80;46.30
41178;DHT22;26912;54.292;18.574;2022-10-14T06:28:48;22.80;46.40
41178;DHT22;26912;54.292;18.574;2022-10-14T06:31:15;22.90;46.40
41178;DHT22;26912;54.292;18.574;2022-10-14T06:33:41;22.90;46.50
41178;DHT22;26912;54.292;18.574;2022-10-14T06:36:09;23.00;46.50
41178;DHT22;26912;54.292;18.574;2022-10-14T06:38:35;23.00;46.20
41178;DHT22;26912;54.292;18.574;2022-10-14T06:41:02;23.00;46.40
41178;DHT22;26912;54.292;18.574;2022-10-14T06:43:28;23.00;46.20
41178;DHT22;26912;54.292;18.574;2022-10-14T06:45:58;23.10;46.40
41178;DHT22;26912;54.292;18.574;2022-10-14T06:48:24;23.10;46.40
41178;DHT22;26912;54.292;18.574;2022-10-14T06:50:51;23.20;46.60
41178;DHT22;26912;54.292;18.574;2022-10-14T06:53:17;23.20;46.60
41178;DHT22;26912;54.292;18.574;2022-10-14T06:55:44;23.00;47.10
41178;DHT22;26912;54.292;18.574;2022-10-14T06:58:10;23.10;47.40
41178;DHT22;26912;54.292;18.574;2022-10-14T07:00:37;23.40;47.70
41178;DHT22;26912;54.292;18.574;2022-10-14T07:03:03;23.70;47.70
41178;DHT22;26912;54.292;18.574;2022-10-14T07:05:30;24.10;47.20
41178;DHT22;26912;54.292;18.574;2022-10-14T07:07:57;24.30;46.90
41178;DHT22;26912;54.292;18.574;2022-10-14T07:10:23;24.50;46.70
41178;DHT22;26912;54.292;18.574;2022-10-14T07:12:53;24.70;46.30
41178;DHT22;26912;54.292;18.574;2022-10-14T07:15:20;24.80;46.30
41178;DHT22;26912;54.292;18.574;2022-10-14T07:17:47;24.90;45.90
41178;DHT22;26912;54.292;18.574;2022-10-14T07:20:13;25.00;46.40
41178;DHT22;26912;54.292;18.574;2022-10-14T07:22:39;25.10;45.60
41178;DHT22;26912;54.292;18.574;2022-10-14T07:25:06;25.10;45.50
41178;DHT22;26912;54.292;18.574;2022-10-14T07:27:33;24.90;45.70
41178;DHT22;26912;54.292;18.574;2022-10-14T07:30:00;25.10;45.50
41178;DHT22;26912;54.292;18.574;2022-10-14T07:32:27;25.20;45.60
41178;DHT22;26912;54.292;18.574;2022-10-14T07:34:53;25.20;45.30
41178;DHT22;26912;54.292;18.574;2022-10-14T07:37:19;25.30;45.50
41178;DHT22;26912;54.292;18.574;2022-10-14T07:39:46;25.30;45.30
41178;DHT22;26912;54.292;18.574;2022-10-14T07:42:13;25.20;45.30
41178;DHT22;26912;54.292;18.574;2022-10-14T07:44:39;25.20;45.40
41178;DHT22;26912;54.292;18.574;2022-10-14T07:47:06;25.20;45.30
41178;DHT22;26912;54.292;18.574;2022-10-14T07:49:33;25.30;45.20
41178;DHT22;26912;54.292;18.574;2022-10-14T07:51:59;25.40;45.20
41178;DHT22;26912;54.292;18.574;2022-10-14T07:54:26;25.40;45.10
41178;DHT22;26912;54.292;18.574;2022-10-14T07:56:56;25.50;45.20
41178;DHT22;26912;54.292;18.574;2022-10-14T07:59:23;25.50;45.10
41178;DHT22;26912;54.292;18.574;2022-10-14T08:01:51;25.60;44.90
41178;DHT22;26912;54.292;18.574;2022-10-14T08:04:18;25.70;44.80
41178;DHT22;26912;54.292;18.574;2022-10-14T08:06:49;25.50;45.00
41178;DHT22;26912;54.292;18.574;2022-10-14T08:09:16;25.50;45.00
41178;DHT22;26912;54.292;18.574;2022-10-14T08:11:43;25.60;45.40
41178;DHT22;26912;54.292;18.574;2022-10-14T08:14:10;25.70;45.20
41178;DHT22;26912;54.292;18.574;2022-10-14T08:16:37;25.80;45.30
41178;DHT22;26912;54.292;18.574;2022-10-14T08:19:07;26.00;44.90
41178;DHT22;26912;54.292;18.574;2022-10-14T08:21:33;26.40;44.60
41178;DHT22;26912;54.292;18.574;2022-10-14T08:24:00;27.00;44.10
41178;DHT22;26912;54.292;18.574;2022-10-14T08:28:58;28.00;43.10
41178;DHT22;26912;54.292;18.574;2022-10-14T08:31:25;28.50;42.40
41178;DHT22;26912;54.292;18.574;2022-10-14T08:33:51;28.90;42.20
41178;DHT22;26912;54.292;18.574;2022-10-14T08:36:19;29.40;41.70
41178;DHT22;26912;54.292;18.574;2022-10-14T08:38:46;29.80;40.70
41178;DHT22;26912;54.292;18.574;2022-10-14T08:43:48;30.50;39.70
41178;DHT22;26912;54.292;18.574;2022-10-14T08:46:32;30.50;38.90
41178;DHT22;26912;54.292;18.574;2022-10-14T08:51:52;31.00;38.40
41178;DHT22;26912;54.292;18.574;2022-10-14T08:57:02;31.70;37.70
41178;DHT22;26912;54.292;18.574;2022-10-14T08:59:29;32.00;37.60
41178;DHT22;26912;54.292;18.574;2022-10-14T09:02:03;32.30;36.80
41178;DHT22;26912;54.292;18.574;2022-10-14T09:04:35;32.40;36.40
41178;DHT22;26912;54.292;18.574;2022-10-14T09:07:02;32.60;36.00
41178;DHT22;26912;54.292;18.574;2022-10-14T09:09:42;32.80;35.80
41178;DHT22;26912;54.292;18.574;2022-10-14T09:12:13;33.10;35.50
41178;DHT22;26912;54.292;18.574;2022-10-14T09:15:06;33.30;35.40
41178;DHT22;26912;54.292;18.574;2022-10-14T09:17:43;33.40;34.80
41178;DHT22;26912;54.292;18.574;2022-10-14T09:20:18;33.50;35.00
41178;DHT22;26912;54.292;18.574;2022-10-14T09:23:24;33.50;34.70
41178;DHT22;26912;54.292;18.574;2022-10-14T09:28:15;33.50;34.40
41178;DHT22;26912;54.292;18.574;2022-10-14T09:30:44;33.60;34.60
41178;DHT22;26912;54.292;18.574;2022-10-14T09:33:16;33.80;34.30
41178;DHT22;26912;54.292;18.574;2022-10-14T09:35:46;34.10;34.40
41178;DHT22;26912;54.292;18.574;2022-10-14T09:38:14;34.20;33.90
41178;DHT22;26912;54.292;18.574;2022-10-14T09:40:46;34.40;33.80
41178;DHT22;26912;54.292;18.574;2022-10-14T09:43:18;34.70;33.50
41178;DHT22;26912;54.292;18.574;2022-10-14T09:51:06;35.10;32.40
41178;DHT22;26912;54.292;18.574;2022-10-14T09:53:51;35.20;32.60
41178;DHT22;26912;54.292;18.574;2022-10-14T09:56:29;35.50;32.40
41178;DHT22;26912;54.292;18.574;2022-10-14T09:58:56;35.40;32.30
41178;DHT22;26912;54.292;18.574;2022-10-14T10:01:25;34.80;32.20
41178;DHT22;26912;54.292;18.574;2022-10-14T10:03:53;34.30;32.80
41178;DHT22;26912;54.292;18.574;2022-10-14T10:06:23;34.20;33.10
41178;DHT22;26912;54.292;18.574;2022-10-14T10:11:33;33.90;33.70
41178;DHT22;26912;54.292;18.574;2022-10-14T10:14:27;33.50;33.50
41178;DHT22;26912;54.292;18.574;2022-10-14T10:19:39;32.70;35.00
41178;DHT22;26912;54.292;18.574;2022-10-14T10:22:24;32.90;35.30
41178;DHT22;26912;54.292;18.574;2022-10-14T10:27:43;33.60;35.00
41178;DHT22;26912;54.292;18.574;2022-10-14T10:30:21;33.60;34.40
41178;DHT22;26912;54.292;18.574;2022-10-14T10:32:52;33.40;34.40
41178;DHT22;26912;54.292;18.574;2022-10-14T10:38:31;32.70;34.80
41178;DHT22;26912;54.292;18.574;2022-10-14T10:46:09;31.80;36.10
41178;DHT22;26912;54.292;18.574;2022-10-14T10:48:47;31.20;36.30
41178;DHT22;26912;54.292;18.574;2022-10-14T10:56:54;30.40;38.70
41178;DHT22;26912;54.292;18.574;2022-10-14T10:59:47;30.30;38.80
41178;DHT22;26912;54.292;18.574;2022-10-14T11:05:07;30.30;39.10
41178;DHT22;26912;54.292;18.574;2022-10-14T11:07:56;30.30;39.00
41178;DHT22;26912;54.292;18.574;2022-10-14T11:10:58;30.10;39.00
41178;DHT22;26912;54.292;18.574;2022-10-14T11:13:56;30.10;40.00
41178;DHT22;26912;54.292;18.574;2022-10-14T11:19:35;30.40;40.10
41178;DHT22;26912;54.292;18.574;2022-10-14T11:27:40;30.40;39.50
41178;DHT22;26912;54.292;18.574;2022-10-14T11:30:19;30.30;39.80
41178;DHT22;26912;54.292;18.574;2022-10-14T11:33:11;29.90;39.70
41178;DHT22;26912;54.292;18.574;2022-10-14T11:36:18;29.60;40.10
41178;DHT22;26912;54.292;18.574;2022-10-14T11:46:59;29.60;41.70
41178;DHT22;26912;54.292;18.574;2022-10-14T11:49:32;29.80;41.30
41178;DHT22;26912;54.292;18.574;2022-10-14T11:52:06;29.80;41.50
41178;DHT22;26912;54.292;18.574;2022-10-14T11:54:44;29.70;41.50
41178;DHT22;26912;54.292;18.574;2022-10-14T11:57:32;29.80;41.40
41178;DHT22;26912;54.292;18.574;2022-10-14T12:00:03;29.90;41.60
41178;DHT22;26912;54.292;18.574;2022-10-14T12:02:42;29.80;41.50
41178;DHT22;26912;54.292;18.574;2022-10-14T12:10:58;29.80;41.70
41178;DHT22;26912;54.292;18.574;2022-10-14T12:13:42;29.80;41.70
41178;DHT22;26912;54.292;18.574;2022-10-14T12:16:18;29.80;41.50
41178;DHT22;26912;54.292;18.574;2022-10-14T12:18:48;29.80;41.50
41178;DHT22;26912;54.292;18.574;2022-10-14T12:24:11;29.50;41.90
41178;DHT22;26912;54.292;18.574;2022-10-14T12:26:51;29.30;42.20
41178;DHT22;26912;54.292;18.574;2022-10-14T12:29:21;29.40;42.20
41178;DHT22;26912;54.292;18.574;2022-10-14T12:31:52;29.50;42.40
41178;DHT22;26912;54.292;18.574;2022-10-14T12:34:31;29.70;42.30
41178;DHT22;26912;54.292;18.574;2022-10-14T12:37:00;29.70;41.90
41178;DHT22;26912;54.292;18.574;2022-10-14T12:39:47;29.70;42.00
41178;DHT22;26912;54.292;18.574;2022-10-14T12:42:15;29.60;41.50
41178;DHT22;26912;54.292;18.574;2022-10-14T12:44:52;29.90;41.50
41178;DHT22;26912;54.292;18.574;2022-10-14T12:49:54;29.70;40.40
41178;DHT22;26912;54.292;18.574;2022-10-14T12:52:31;29.50;41.40
41178;DHT22;26912;54.292;18.574;2022-10-14T12:54:59;29.50;41.10
41178;DHT22;26912;54.292;18.574;2022-10-14T12:57:32;29.60;41.30
41178;DHT22;26912;54.292;18.574;2022-10-14T13:00:05;29.70;40.80
41178;DHT22;26912;54.292;18.574;2022-10-14T13:02:43;30.10;41.00
41178;DHT22;26912;54.292;18.574;2022-10-14T13:05:40;30.60;40.40
41178;DHT22;26912;54.292;18.574;2022-10-14T13:16:03;33.20;37.60
41178;DHT22;26912;54.292;18.574;2022-10-14T13:18:32;33.50;35.90
41178;DHT22;26912;54.292;18.574;2022-10-14T13:20:58;33.50;35.60
41178;DHT22;26912;54.292;18.574;2022-10-14T13:23:39;33.30;35.60
41178;DHT22;26912;54.292;18.574;2022-10-14T13:39:56;34.30;34.10
41178;DHT22;26912;54.292;18.574;2022-10-14T13:42:28;34.20;33.40
41178;DHT22;26912;54.292;18.574;2022-10-14T13:45:09;34.20;33.20
41178;DHT22;26912;54.292;18.574;2022-10-14T13:47:40;34.20;33.60
41178;DHT22;26912;54.292;18.574;2022-10-14T13:50:10;34.50;33.10
41178;DHT22;26912;54.292;18.574;2022-10-14T13:52:38;34.60;33.00
41178;DHT22;26912;54.292;18.574;2022-10-14T13:55:12;34.50;32.90
41178;DHT22;26912;54.292;18.574;2022-10-14T13:57:57;34.10;32.20
41178;DHT22;26912;54.292;18.574;2022-10-14T14:00:32;33.70;32.80
41178;DHT22;26912;54.292;18.574;2022-10-14T14:03:17;33.50;33.10
41178;DHT22;26912;54.292;18.574;2022-10-14T14:05:45;32.80;33.80
41178;DHT22;26912;54.292;18.574;2022-10-14T14:08:16;32.40;34.90
41178;DHT22;26912;54.292;18.574;2022-10-14T14:10:55;32.40;35.00
41178;DHT22;26912;54.292;18.574;2022-10-14T14:13:23;32.20;35.50
41178;DHT22;26912;54.292;18.574;2022-10-14T14:15:52;32.00;35.60
41178;DHT22;26912;54.292;18.574;2022-10-14T14:18:37;31.80;35.80
41178;DHT22;26912;54.292;18.574;2022-10-14T14:21:11;31.30;36.10
41178;DHT22;26912;54.292;18.574;2022-10-14T14:23:56;30.70;36.60
41178;DHT22;26912;54.292;18.574;2022-10-14T14:26:34;30.30;37.60
41178;DHT22;26912;54.292;18.574;2022-10-14T14:29:15;30.20;38.30
41178;DHT22;26912;54.292;18.574;2022-10-14T14:31:43;30.20;38.60
41178;DHT22;26912;54.292;18.574;2022-10-14T14:34:17;30.00;38.80
41178;DHT22;26912;54.292;18.574;2022-10-14T14:36:44;29.90;38.70
41178;DHT22;26912;54.292;18.574;2022-10-14T14:39:31;29.70;39.00
41178;DHT22;26912;54.292;18.574;2022-10-14T14:41:58;29.50;39.20
41178;DHT22;26912;54.292;18.574;2022-10-14T14:44:29;29.50;39.60
41178;DHT22;26912;54.292;18.574;2022-10-14T14:46:59;29.30;39.70
41178;DHT22;26912;54.292;18.574;2022-10-14T14:49:33;29.30;40.20
41178;DHT22;26912;54.292;18.574;2022-10-14T14:52:02;29.20;40.10
41178;DHT22;26912;54.292;18.574;2022-10-14T14:54:30;29.10;40.90
41178;DHT22;26912;54.292;18.574;2022-10-14T14:59:38;28.80;41.00
41178;DHT22;26912;54.292;18.574;2022-10-14T15:02:17;28.50;41.00
41178;DHT22;26912;54.292;18.574;2022-10-14T15:04:58;28.30;41.80
41178;DHT22;26912;54.292;18.574;2022-10-14T15:07:28;28.30;42.00
41178;DHT22;26912;54.292;18.574;2022-10-14T15:10:00;28.20;42.30
41178;DHT22;26912;54.292;18.574;2022-10-14T15:12:30;28.00;42.80
41178;DHT22;26912;54.292;18.574;2022-10-14T15:15:00;28.00;43.20
41178;DHT22;26912;54.292;18.574;2022-10-14T15:17:37;28.00;43.60
41178;DHT22;26912;54.292;18.574;2022-10-14T15:22:40;28.00;43.80
41178;DHT22;26912;54.292;18.574;2022-10-14T15:25:10;28.00;43.70
41178;DHT22;26912;54.292;18.574;2022-10-14T15:27:40;27.80;43.90
41178;DHT22;26912;54.292;18.574;2022-10-14T15:31:12;27.80;44.00
41178;DHT22;26912;54.292;18.574;2022-10-14T15:33:20;27.70;43.70
41178;DHT22;26912;54.292;18.574;2022-10-14T15:35:58;27.60;43.70
41178;DHT22;26912;54.292;18.574;2022-10-14T15:38:28;27.50;43.70
41178;DHT22;26912;54.292;18.574;2022-10-14T15:40:54;27.40;43.80
41178;DHT22;26912;54.292;18.574;2022-10-14T15:43:26;27.30;44.10
41178;DHT22;26912;54.292;18.574;2022-10-14T15:45:57;27.10;44.10
41178;DHT22;26912;54.292;18.574;2022-10-14T15:48:49;27.10;44.10
41178;DHT22;26912;54.292;18.574;2022-10-14T15:51:20;27.00;44.00
41178;DHT22;26912;54.292;18.574;2022-10-14T15:53:49;27.00;44.10
41178;DHT22;26912;54.292;18.574;2022-10-14T15:56:16;26.90;44.20
41178;DHT22;26912;54.292;18.574;2022-10-14T15:58:44;26.70;44.20
41178;DHT22;26912;54.292;18.574;2022-10-14T16:01:15;26.70;44.50
41178;DHT22;26912;54.292;18.574;2022-10-14T16:03:42;26.70;44.90
41178;DHT22;26912;54.292;18.574;2022-10-14T16:06:09;26.70;45.10
41178;DHT22;26912;54.292;18.574;2022-10-14T16:08:37;26.70;45.10
41178;DHT22;26912;54.292;18.574;2022-10-14T16:11:03;26.70;44.80
41178;DHT22;26912;54.292;18.574;2022-10-14T16:13:30;26.70;44.90
41178;DHT22;26912;54.292;18.574;2022-10-14T16:16:02;26.60;45.10
41178;DHT22;26912;54.292;18.574;2022-10-14T16:18:31;26.50;45.20
41178;DHT22;26912;54.292;18.574;2022-10-14T16:20:57;26.40;45.60
41178;DHT22;26912;54.292;18.574;2022-10-14T16:23:25;26.40;45.90
41178;DHT22;26912;54.292;18.574;2022-10-14T16:25:53;26.50;46.30
41178;DHT22;26912;54.292;18.574;2022-10-14T16:28:20;26.40;46.00
41178;DHT22;26912;54.292;18.574;2022-10-14T16:30:47;26.40;46.10
41178;DHT22;26912;54.292;18.574;2022-10-14T16:33:19;26.30;46.00
41178;DHT22;26912;54.292;18.574;2022-10-14T16:35:52;26.40;46.30
41178;DHT22;26912;54.292;18.574;2022-10-14T16:38:19;26.40;46.20
41178;DHT22;26912;54.292;18.574;2022-10-14T16:40:54;26.30;46.20
41178;DHT22;26912;54.292;18.574;2022-10-14T16:43:21;26.20;46.20
41178;DHT22;26912;54.292;18.574;2022-10-14T16:45:47;26.20;46.20
41178;DHT22;26912;54.292;18.574;2022-10-14T16:48:14;26.20;46.00
41178;DHT22;26912;54.292;18.574;2022-10-14T16:50:42;26.20;45.70
41178;DHT22;26912;54.292;18.574;2022-10-14T16:53:08;26.10;45.80
41178;DHT22;26912;54.292;18.574;2022-10-14T16:55:55;26.00;45.60
41178;DHT22;26912;54.292;18.574;2022-10-14T16:58:22;26.00;45.60
41178;DHT22;26912;54.292;18.574;2022-10-14T17:00:50;25.90;45.80
41178;DHT22;26912;54.292;18.574;2022-10-14T17:03:19;25.90;45.70
41178;DHT22;26912;54.292;18.574;2022-10-14T17:05:55;25.80;45.40
41178;DHT22;26912;54.292;18.574;2022-10-14T17:08:22;25.80;45.30
41178;DHT22;26912;54.292;18.574;2022-10-14T17:10:56;25.80;45.40
41178;DHT22;26912;54.292;18.574;2022-10-14T17:13:22;25.70;45.70
41178;DHT22;26912;54.292;18.574;2022-10-14T17:15:49;25.60;46.00
41178;DHT22;26912;54.292;18.574;2022-10-14T17:18:16;25.50;46.40
41178;DHT22;26912;54.292;18.574;2022-10-14T17:20:42;25.40;46.20
41178;DHT22;26912;54.292;18.574;2022-10-14T17:23:09;25.30;46.70
41178;DHT22;26912;54.292;18.574;2022-10-14T17:25:36;25.20;46.50
41178;DHT22;26912;54.292;18.574;2022-10-14T17:28:02;25.30;46.60
41178;DHT22;26912;54.292;18.574;2022-10-14T17:30:29;25.20;47.10
41178;DHT22;26912;54.292;18.574;2022-10-14T17:32:55;25.30;47.30
41178;DHT22;26912;54.292;18.574;2022-10-14T17:35:21;25.30;47.30
41178;DHT22;26912;54.292;18.574;2022-10-14T17:37:48;25.20;47.40
41178;DHT22;26912;54.292;18.574;2022-10-14T17:40:15;25.10;47.20
41178;DHT22;26912;54.292;18.574;2022-10-14T17:42:42;25.00;47.40
41178;DHT22;26912;54.292;18.574;2022-10-14T17:45:09;25.00;47.70
41178;DHT22;26912;54.292;18.574;2022-10-14T17:47:36;25.00;47.70
41178;DHT22;26912;54.292;18.574;2022-10-14T17:50:02;25.00;48.50